createdAt,value
2023-10-05T00:04:18.492Z,10.77
2023-10-05T00:09:28.891Z,10.74
2023-10-05T00:14:38.932Z,10.73
2023-10-05T00:19:49.650Z,10.71
2023-10-05T00:24:59.284Z,10.71
2023-10-05T00:30:14.185Z,10.71
2023-10-05T00:35:27.896Z,10.70
2023-10-05T00:40:41.240Z,10.72
2023-10-05T00:45:51.943Z,10.77
2023-10-05T00:51:07.667Z,10.86
2023-10-05T00:56:19.643Z,10.95
2023-10-05T01:01:29.495Z,11.04
2023-10-05T01:06:43.873Z,11.11
2023-10-05T01:11:55.830Z,11.14
2023-10-05T01:17:05.728Z,11.15
2023-10-05T01:22:18.240Z,11.14
2023-10-05T01:27:31.411Z,11.11
2023-10-05T01:32:42.583Z,11.09
2023-10-05T01:37:54.864Z,11.06
2023-10-05T01:43:05.511Z,11.02
2023-10-05T01:48:26.910Z,11.00
2023-10-05T01:53:36.874Z,10.97
2023-10-05T01:58:51.877Z,10.94
2023-10-05T02:04:02.508Z,10.89
2023-10-05T02:09:14.277Z,10.85
2023-10-05T02:14:24.205Z,10.82
2023-10-05T02:19:33.878Z,10.82
2023-10-05T02:24:44.118Z,10.84
2023-10-05T02:29:54.929Z,10.89
2023-10-05T02:35:20.128Z,10.94
2023-10-05T02:40:37.275Z,10.94
2023-10-05T02:45:46.969Z,10.93
2023-10-05T02:50:56.823Z,10.90
2023-10-05T02:56:07.377Z,10.88
2023-10-05T03:01:17.890Z,10.88
2023-10-05T03:06:28.859Z,10.89
2023-10-05T03:11:42.578Z,10.93
2023-10-05T03:16:58.283Z,10.97
2023-10-05T03:22:12.595Z,11.00
2023-10-05T03:27:27.537Z,11.01
2023-10-05T03:32:39.153Z,11.03
2023-10-05T03:37:49.041Z,11.05
2023-10-05T03:43:00.336Z,11.07
2023-10-05T03:48:11.786Z,11.10
2023-10-05T03:53:22.867Z,11.13
2023-10-05T03:58:34.570Z,11.17
2023-10-05T04:03:45.334Z,11.19
2023-10-05T04:08:59.404Z,11.21
2023-10-05T04:14:10.128Z,11.20
2023-10-05T04:19:20.050Z,11.18
2023-10-05T04:24:29.969Z,11.16
2023-10-05T04:29:40.162Z,11.14
2023-10-05T04:34:49.961Z,11.12
2023-10-05T04:40:01.208Z,11.10
2023-10-05T04:45:16.030Z,11.09
2023-10-05T04:50:26.702Z,11.09
2023-10-05T04:55:42.826Z,11.09
2023-10-05T05:01:17.106Z,11.09
2023-10-05T05:06:28.777Z,11.11
2023-10-05T05:11:38.981Z,11.13
2023-10-05T05:16:51.325Z,11.15
2023-10-05T05:22:02.060Z,11.19
2023-10-05T05:27:23.061Z,11.22
2023-10-05T05:32:32.945Z,11.29
2023-10-05T05:37:48.573Z,11.35
2023-10-05T05:42:59.648Z,11.43
2023-10-05T05:48:16.115Z,11.52
2023-10-05T05:53:26.076Z,11.61
2023-10-05T05:58:36.797Z,11.68
2023-10-05T06:03:49.037Z,11.76
2023-10-05T06:08:59.458Z,11.81
2023-10-05T06:14:09.716Z,11.85
2023-10-05T06:19:19.423Z,11.91
2023-10-05T06:24:29.202Z,12.00
2023-10-05T06:29:38.760Z,12.11
2023-10-05T06:34:49.517Z,12.25
2023-10-05T06:40:01.314Z,12.36
2023-10-05T06:45:15.125Z,12.42
2023-10-05T06:50:24.956Z,12.45
2023-10-05T06:55:34.810Z,12.47
2023-10-05T07:00:44.355Z,12.49
2023-10-05T07:05:55.655Z,12.56
2023-10-05T07:11:08.375Z,12.58
2023-10-05T07:16:18.585Z,12.62
2023-10-05T07:21:28.500Z,12.67
2023-10-05T07:26:38.571Z,12.72
2023-10-05T07:31:48.287Z,12.77
2023-10-05T07:36:58.857Z,12.84
2023-10-05T07:42:09.881Z,12.89
2023-10-05T07:47:20.712Z,12.93
2023-10-05T07:52:31.876Z,12.98
2023-10-05T07:57:42.095Z,13.05
2023-10-05T08:02:52.625Z,13.11
2023-10-05T08:08:03.635Z,13.15
2023-10-05T08:13:13.697Z,13.15
2023-10-05T08:18:23.837Z,13.22
2023-10-05T08:23:35.280Z,13.24
2023-10-05T08:28:51.721Z,13.27
2023-10-05T08:34:04.785Z,13.34
2023-10-05T08:39:17.532Z,13.43
2023-10-05T08:44:32.161Z,13.56
2023-10-05T08:49:45.390Z,13.55
2023-10-05T08:54:56.901Z,13.56
2023-10-05T09:00:15.986Z,13.55
2023-10-05T09:05:26.077Z,13.53
2023-10-05T09:10:39.352Z,13.50
2023-10-05T09:15:59.138Z,13.38
2023-10-05T09:21:14.384Z,13.24
2023-10-05T09:26:35.614Z,13.17
2023-10-05T09:31:46.184Z,13.09
2023-10-05T09:36:55.989Z,13.01
2023-10-05T09:42:08.698Z,12.94
2023-10-05T09:47:20.318Z,12.95
2023-10-05T09:52:37.115Z,12.98
2023-10-05T09:57:55.599Z,13.04
2023-10-05T10:03:07.921Z,13.06
2023-10-05T10:08:24.851Z,13.11
2023-10-05T10:13:38.987Z,13.14
2023-10-05T10:18:49.556Z,13.20
2023-10-05T10:24:10.381Z,13.25
2023-10-05T10:29:24.672Z,13.24
2023-10-05T10:34:51.926Z,13.27
2023-10-05T10:40:04.664Z,13.26
2023-10-05T10:45:25.000Z,13.28
2023-10-05T10:50:39.132Z,13.24
2023-10-05T10:55:59.614Z,13.23
2023-10-05T11:01:15.534Z,13.20
2023-10-05T11:06:27.533Z,13.21
2023-10-05T11:11:45.054Z,13.23
2023-10-05T11:17:01.436Z,13.30
2023-10-05T11:22:14.435Z,13.39
2023-10-05T11:27:26.542Z,13.49
2023-10-05T11:33:17.792Z,13.64
2023-10-05T11:38:21.305Z,13.68
2023-10-05T11:43:32.252Z,13.71
2023-10-05T11:48:49.529Z,13.76
2023-10-05T11:53:59.919Z,13.93
2023-10-05T11:59:12.070Z,13.95
2023-10-05T12:04:22.533Z,13.98
2023-10-05T12:09:33.825Z,14.02
2023-10-05T12:14:43.912Z,14.06
2023-10-05T12:19:55.880Z,14.13
2023-10-05T12:25:09.123Z,14.26
2023-10-05T12:30:19.476Z,14.46
2023-10-05T12:35:31.001Z,14.56
2023-10-05T12:40:43.522Z,14.69
2023-10-05T12:45:55.296Z,14.79
2023-10-05T12:51:07.566Z,14.73
2023-10-05T12:56:17.626Z,14.81
2023-10-05T13:01:28.778Z,14.92
2023-10-05T13:06:40.280Z,14.96
2023-10-05T13:11:50.505Z,15.04
2023-10-05T13:17:03.580Z,15.07
2023-10-05T13:22:13.724Z,15.03
2023-10-05T13:27:23.468Z,15.03
2023-10-05T13:32:33.649Z,14.98
2023-10-05T13:37:43.984Z,14.87
2023-10-05T13:42:53.692Z,14.64
2023-10-05T13:48:04.322Z,14.86
2023-10-05T13:53:14.089Z,14.94
2023-10-05T13:58:23.960Z,14.83
2023-10-05T14:03:38.014Z,14.79
2023-10-05T14:08:48.293Z,14.80
2023-10-05T14:13:58.252Z,14.77
2023-10-05T14:19:08.386Z,14.77
2023-10-05T14:24:19.376Z,14.69
2023-10-05T14:29:36.702Z,14.66
2023-10-05T14:34:51.514Z,14.68
2023-10-05T14:40:01.614Z,14.67
2023-10-05T14:45:15.922Z,14.65
2023-10-05T14:50:27.750Z,14.65
2023-10-05T14:55:38.488Z,14.68
2023-10-05T15:00:48.329Z,14.69
2023-10-05T15:05:58.063Z,14.69
2023-10-05T15:11:07.866Z,14.67
2023-10-05T15:16:17.860Z,14.61
2023-10-05T15:21:28.680Z,14.48
2023-10-05T15:26:38.715Z,14.36
2023-10-05T15:31:49.331Z,14.22
2023-10-05T15:36:59.013Z,14.11
2023-10-05T15:42:09.202Z,14.04
2023-10-05T15:47:19.694Z,13.97
2023-10-05T15:52:29.865Z,13.92
2023-10-05T15:57:43.206Z,13.86
2023-10-05T16:02:57.241Z,13.83
2023-10-05T16:08:08.964Z,13.84
2023-10-05T16:13:19.281Z,13.90
2023-10-05T16:18:31.340Z,13.96
2023-10-05T16:23:42.122Z,13.97
2023-10-05T16:28:51.965Z,13.90
2023-10-05T16:34:01.967Z,13.84
2023-10-05T16:39:13.143Z,13.78
2023-10-05T16:44:24.449Z,13.69
2023-10-05T16:49:34.850Z,13.64
2023-10-05T16:54:45.373Z,13.64
2023-10-05T16:59:55.243Z,13.66
2023-10-05T17:05:14.661Z,13.71
2023-10-05T17:10:26.012Z,13.71
2023-10-05T17:15:37.079Z,13.73
2023-10-05T17:20:46.869Z,13.69
2023-10-05T17:25:56.921Z,13.65
2023-10-05T17:31:06.897Z,13.65
2023-10-05T17:36:16.702Z,13.56
2023-10-05T17:41:26.404Z,13.45
2023-10-05T17:46:36.262Z,13.36
2023-10-05T17:51:46.393Z,13.27
2023-10-05T17:56:57.819Z,13.15
2023-10-05T18:02:07.987Z,13.06
2023-10-05T18:07:18.723Z,13.04
2023-10-05T18:12:28.757Z,13.01
2023-10-05T18:17:38.924Z,12.98
2023-10-05T18:22:50.096Z,13.00
2023-10-05T18:28:02.672Z,13.03
2023-10-05T18:33:15.077Z,12.99
2023-10-05T18:38:25.045Z,12.85
2023-10-05T18:43:35.318Z,12.63
2023-10-05T18:48:45.244Z,12.47
2023-10-05T18:53:55.116Z,12.39
2023-10-05T18:59:05.927Z,12.33
2023-10-05T19:04:15.975Z,12.30
2023-10-05T19:09:27.126Z,12.24
2023-10-05T19:14:37.295Z,12.15
2023-10-05T19:19:47.435Z,12.08
2023-10-05T19:24:57.540Z,12.04
2023-10-05T19:30:12.200Z,11.99
2023-10-05T19:35:24.663Z,11.94
2023-10-05T19:40:34.623Z,11.92
2023-10-05T19:45:44.623Z,11.89
2023-10-05T19:50:54.645Z,11.85
2023-10-05T19:56:04.889Z,11.82
2023-10-05T20:01:18.152Z,11.81
2023-10-05T20:06:30.178Z,11.79
2023-10-05T20:11:41.319Z,11.74
2023-10-05T20:16:51.288Z,11.66
2023-10-05T20:22:01.784Z,11.56
2023-10-05T20:27:17.320Z,11.44
2023-10-05T20:32:27.383Z,11.34
2023-10-05T20:37:37.071Z,11.27
2023-10-05T20:42:46.890Z,11.20
2023-10-05T20:47:56.973Z,11.09
2023-10-05T20:53:07.448Z,10.99
2023-10-05T20:58:18.196Z,10.89
2023-10-05T21:03:28.012Z,10.78
2023-10-05T21:08:41.935Z,10.70
2023-10-05T21:13:51.685Z,10.61
2023-10-05T21:19:02.002Z,10.52
2023-10-05T21:24:14.130Z,10.47
2023-10-05T21:29:23.743Z,10.40
2023-10-05T21:34:35.489Z,10.32
2023-10-05T21:39:45.502Z,10.24
2023-10-05T21:45:12.634Z,10.19
2023-10-05T21:50:22.854Z,10.11
2023-10-05T21:55:32.852Z,10.06
2023-10-05T22:00:54.546Z,10.02
2023-10-05T22:06:05.790Z,9.97
2023-10-05T22:11:15.799Z,9.92
2023-10-05T22:16:25.828Z,9.90
2023-10-05T22:21:35.860Z,9.86
2023-10-05T22:26:45.791Z,9.82
2023-10-05T22:31:55.477Z,9.77
2023-10-05T22:37:05.666Z,9.74
2023-10-05T22:42:15.847Z,9.70
2023-10-05T22:47:26.400Z,9.65
2023-10-05T22:52:36.414Z,9.61
2023-10-05T22:57:46.136Z,9.57
2023-10-05T23:02:56.106Z,9.53
2023-10-05T23:08:06.211Z,9.48
2023-10-05T23:13:16.743Z,9.44
2023-10-05T23:18:27.454Z,9.42
2023-10-05T23:23:39.437Z,9.38
2023-10-05T23:28:49.742Z,9.37
2023-10-05T23:33:59.982Z,9.35
2023-10-05T23:39:11.529Z,9.36
2023-10-05T23:44:21.972Z,9.37
2023-10-05T23:49:33.766Z,9.38
2023-10-05T23:54:43.817Z,9.38
2023-10-05T23:59:55.148Z,9.38
